Time;durP1;ratioP1;P1;durP2;ratioP2;P2;SDS_P1;SDS_P2;PMS_P1;PMS_P2;Temp;Humidity;BMP_temperature;BMP_pressure;BME280_temperature;BME280_humidity;BME280_pressure;Samples;Min_cycle;Max_cycle;Signal;HPM_P1;HPM_P2
2020/12/07 00:01:13;;;;;;;7.87;7.07;;;3.60;99.90;;;;;;4994847;28;20241;-48
2020/12/07 00:03:39;;;;;;;8.77;7.97;;;3.60;99.90;;;;;;4994512;28;20218;-49
2020/12/07 00:06:06;;;;;;;8.20;7.33;;;3.70;99.90;;;;;;4994160;28;20783;-48
2020/12/07 00:08:33;;;;;;;7.77;7.00;;;3.70;99.90;;;;;;4994385;28;20250;-48
2020/12/07 00:11:01;;;;;;;7.57;6.83;;;3.70;99.90;;;;;;4994355;28;20261;-50
2020/12/07 00:13:28;;;;;;;8.47;7.57;;;3.80;99.90;;;;;;4994516;28;20297;-47
2020/12/07 00:15:55;;;;;;;8.33;7.53;;;3.80;99.90;;;;;;4994733;28;20615;-48
2020/12/07 00:18:23;;;;;;;27.70;19.70;;;3.80;99.90;;;;;;4994136;28;20301;-46
2020/12/07 00:20:50;;;;;;;8.07;7.27;;;3.80;99.90;;;;;;4994112;28;20228;-47
2020/12/07 00:23:17;;;;;;;7.60;6.90;;;3.80;99.90;;;;;;4994368;28;20297;-51
2020/12/07 00:25:45;;;;;;;8.97;8.17;;;3.80;99.90;;;;;;4994183;28;20312;-51
2020/12/07 00:28:12;;;;;;;8.10;7.30;;;3.80;99.90;;;;;;4994126;28;20297;-49
2020/12/07 00:30:39;;;;;;;8.95;7.57;;;3.90;99.90;;;;;;4993990;28;20659;-50
2020/12/07 00:33:06;;;;;;;7.53;6.80;;;3.90;99.90;;;;;;4993863;28;20220;-48
2020/12/07 00:35:34;;;;;;;8.00;7.20;;;3.80;99.90;;;;;;4993916;28;20210;-48
2020/12/07 00:38:03;;;;;;;8.20;7.40;;;3.80;99.90;;;;;;4993653;28;20214;-47
2020/12/07 00:40:30;;;;;;;7.63;6.97;;;3.80;99.90;;;;;;4993864;28;20248;-47
2020/12/07 00:42:57;;;;;;;7.93;7.13;;;3.70;99.90;;;;;;4993915;28;20210;-49
2020/12/07 00:45:25;;;;;;;7.63;6.93;;;3.70;99.90;;;;;;4993544;28;20226;-50
2020/12/07 00:47:52;;;;;;;7.97;7.23;;;3.80;99.90;;;;;;4993651;28;20210;-47
2020/12/07 00:50:19;;;;;;;7.83;7.03;;;3.80;99.90;;;;;;4993666;28;20304;-48
2020/12/07 00:52:47;;;;;;;8.73;7.83;;;3.80;99.90;;;;;;4993793;28;20292;-48
2020/12/07 00:55:14;;;;;;;8.33;7.53;;;3.80;99.90;;;;;;4993437;28;20302;-48
2020/12/07 00:57:41;;;;;;;7.47;6.77;;;3.80;99.90;;;;;;4993577;28;20210;-49
2020/12/07 01:00:08;;;;;;;8.57;7.78;;;3.90;99.90;;;;;;4993322;28;20236;-46
2020/12/07 01:02:35;;;;;;;9.10;8.10;;;3.90;99.90;;;;;;4993625;28;20339;-47
2020/12/07 01:05:04;;;;;;;9.33;8.33;;;4.00;99.90;;;;;;4993349;28;20246;-48
2020/12/07 01:07:31;;;;;;;9.20;8.07;;;4.00;99.90;;;;;;4993212;28;20293;-49
2020/12/07 01:09:59;;;;;;;9.10;8.10;;;4.10;99.90;;;;;;4992913;28;20212;-48
2020/12/07 01:12:26;;;;;;;8.23;7.43;;;4.10;99.90;;;;;;4993477;28;20206;-51
2020/12/07 01:14:53;;;;;;;24.90;19.87;;;4.10;99.90;;;;;;4993167;28;20233;-46
2020/12/07 01:17:20;;;;;;;9.07;8.13;;;4.20;99.90;;;;;;4993116;28;20206;-51
2020/12/07 01:19:47;;;;;;;9.00;8.10;;;4.20;99.90;;;;;;4993343;28;20220;-47
2020/12/07 01:22:14;;;;;;;8.70;7.90;;;4.30;99.90;;;;;;4992951;28;20300;-48
2020/12/07 01:24:41;;;;;;;7.93;7.13;;;4.30;99.90;;;;;;4993061;28;20664;-47
2020/12/07 01:27:09;;;;;;;8.53;7.63;;;4.30;99.90;;;;;;4992995;28;20237;-45
2020/12/07 01:29:36;;;;;;;7.87;7.07;;;4.30;99.90;;;;;;4992869;28;20214;-49
2020/12/07 01:32:04;;;;;;;8.73;7.90;;;4.30;99.90;;;;;;4993000;28;20296;-46
2020/12/07 01:34:31;;;;;;;7.60;6.90;;;4.30;99.90;;;;;;4992986;28;20582;-45
2020/12/07 01:36:58;;;;;;;8.70;7.80;;;4.30;99.90;;;;;;4992954;28;20297;-47
2020/12/07 01:39:25;;;;;;;8.73;7.87;;;4.30;99.90;;;;;;4992808;28;20209;-47
2020/12/07 01:41:52;;;;;;;8.87;7.57;;;4.20;99.90;;;;;;4992704;28;20590;-47
2020/12/07 01:44:19;;;;;;;7.10;6.40;;;4.20;99.90;;;;;;4992657;28;20590;-47
2020/12/07 01:46:46;;;;;;;7.53;6.93;;;4.20;99.90;;;;;;4992854;28;20269;-48
2020/12/07 01:49:13;;;;;;;8.80;8.00;;;4.20;99.90;;;;;;4992639;28;20215;-45
2020/12/07 01:51:41;;;;;;;8.70;7.90;;;4.30;99.90;;;;;;4992693;28;20253;-48
2020/12/07 01:54:08;;;;;;;7.40;6.80;;;4.30;99.90;;;;;;4992617;28;20216;-51
2020/12/07 01:56:37;;;;;;;7.80;7.10;;;4.30;99.90;;;;;;4992687;28;20233;-47
2020/12/07 01:59:04;;;;;;;7.87;7.17;;;4.30;99.90;;;;;;4992898;28;20256;-49
2020/12/07 02:01:37;;;;;;;7.70;6.90;;;4.30;99.90;;;;;;4992430;28;20309;-48
2020/12/07 02:04:05;;;;;;;7.03;6.40;;;4.30;99.90;;;;;;4992152;28;20246;-45
2020/12/07 02:06:32;;;;;;;6.80;6.20;;;4.30;99.90;;;;;;4992550;28;20229;-46
2020/12/07 02:08:59;;;;;;;6.97;6.37;;;4.30;99.90;;;;;;4992437;28;20596;-45
2020/12/07 02:11:26;;;;;;;6.43;5.83;;;4.20;99.90;;;;;;4992326;28;20667;-47
2020/12/07 02:13:53;;;;;;;7.40;6.70;;;4.20;99.90;;;;;;4992546;28;20209;-48
2020/12/07 02:16:20;;;;;;;7.47;6.77;;;4.20;99.90;;;;;;4992472;28;20212;-50
2020/12/07 02:22:28;;;;;;;6.70;6.10;;;4.10;99.90;;;;;;4993937;28;20233;-46
2020/12/07 02:24:55;;;;;;;6.43;5.93;;;4.10;99.90;;;;;;4996352;28;20216;-49
2020/12/07 02:27:22;;;;;;;6.40;5.90;;;4.00;99.90;;;;;;4996217;28;20320;-49
2020/12/07 02:29:49;;;;;;;6.20;5.63;;;4.00;99.90;;;;;;4996193;28;20673;-50
2020/12/07 02:32:17;;;;;;;5.73;5.23;;;4.00;99.90;;;;;;4995922;28;20324;-47
2020/12/07 02:34:44;;;;;;;5.40;4.90;;;4.00;99.90;;;;;;4996028;28;20248;-49
2020/12/07 02:37:12;;;;;;;6.10;5.60;;;4.00;99.90;;;;;;4996479;28;20228;-46
2020/12/07 02:39:40;;;;;;;6.03;5.53;;;3.90;99.90;;;;;;4995865;28;20703;-49
2020/12/07 02:42:07;;;;;;;6.93;6.33;;;3.90;99.90;;;;;;4995901;28;20297;-46
2020/12/07 02:44:34;;;;;;;6.27;5.67;;;3.90;99.90;;;;;;4996036;28;20612;-46
2020/12/07 02:47:01;;;;;;;5.50;5.10;;;3.90;99.90;;;;;;4995738;28;20665;-47
2020/12/07 02:49:28;;;;;;;5.27;4.87;;;3.90;99.90;;;;;;4995773;28;20648;-47
2020/12/07 02:51:55;;;;;;;4.70;4.30;;;3.90;99.90;;;;;;4995760;28;20214;-45
2020/12/07 02:54:22;;;;;;;5.03;4.63;;;4.00;99.90;;;;;;4995649;28;20297;-48
2020/12/07 02:56:50;;;;;;;5.27;4.87;;;4.00;99.90;;;;;;4995500;28;20449;-50
2020/12/07 02:59:17;;;;;;;4.33;4.03;;;3.90;99.90;;;;;;4995777;28;20264;-47
2020/12/07 03:01:44;;;;;;;4.77;4.37;;;3.90;99.90;;;;;;4995646;28;20301;-47
2020/12/07 03:04:11;;;;;;;4.90;4.50;;;3.90;99.90;;;;;;4995457;28;20292;-47
2020/12/07 03:06:38;;;;;;;4.83;4.43;;;3.90;99.90;;;;;;4995579;28;20248;-47
2020/12/07 03:09:05;;;;;;;4.87;4.47;;;3.90;99.90;;;;;;4995423;28;20250;-47
2020/12/07 03:11:32;;;;;;;5.00;4.60;;;3.90;99.90;;;;;;4995416;28;20261;-46
2020/12/07 03:14:00;;;;;;;4.00;3.70;;;4.00;99.90;;;;;;4995681;28;20210;-47
2020/12/07 03:16:27;;;;;;;4.30;4.00;;;4.00;99.90;;;;;;4995373;28;20669;-47
2020/12/07 03:18:54;;;;;;;4.23;3.93;;;4.10;99.90;;;;;;4995499;28;20288;-51
2020/12/07 03:21:22;;;;;;;4.43;4.07;;;4.20;99.90;;;;;;4995296;28;20672;-48
2020/12/07 03:23:49;;;;;;;3.93;3.63;;;4.20;99.90;;;;;;4995192;28;20305;-47
2020/12/07 03:26:16;;;;;;;4.17;3.87;;;4.30;99.90;;;;;;4995091;28;20585;-48
2020/12/07 03:28:43;;;;;;;3.90;3.60;;;4.30;99.90;;;;;;4995067;28;20740;-47
2020/12/07 03:31:11;;;;;;;3.90;3.60;;;4.30;99.90;;;;;;4995250;28;20300;-51
2020/12/07 03:33:38;;;;;;;4.07;3.70;;;4.30;99.90;;;;;;4994633;28;20245;-50
2020/12/07 03:36:05;;;;;;;3.37;3.10;;;4.30;99.90;;;;;;4995127;28;20297;-47
2020/12/07 03:38:32;;;;;;;3.97;3.67;;;4.20;99.90;;;;;;4994923;28;20249;-49
2020/12/07 03:40:59;;;;;;;3.57;3.30;;;4.20;99.90;;;;;;4995239;28;20206;-49
2020/12/07 03:43:26;;;;;;;3.77;3.47;;;4.10;99.90;;;;;;4994938;28;20681;-52
2020/12/07 03:45:53;;;;;;;3.77;3.47;;;4.10;99.90;;;;;;4994684;28;20214;-50
2020/12/07 03:48:21;;;;;;;3.73;3.43;;;4.10;99.90;;;;;;4994966;28;20206;-49
2020/12/07 03:50:47;;;;;;;3.70;3.40;;;4.10;99.90;;;;;;4994852;28;20414;-54
2020/12/07 03:53:14;;;;;;;3.07;2.87;;;4.00;99.90;;;;;;4994648;28;20293;-53
2020/12/07 03:55:41;;;;;;;3.17;2.97;;;4.10;99.90;;;;;;4994986;28;20296;-50
2020/12/07 03:58:08;;;;;;;3.40;3.10;;;4.00;99.90;;;;;;4994584;28;20305;-48
2020/12/07 04:00:35;;;;;;;3.43;3.13;;;3.90;99.90;;;;;;4994740;28;20206;-52
2020/12/07 04:03:05;;;;;;;3.37;3.07;;;3.80;99.90;;;;;;4994781;28;20210;-53
2020/12/07 04:05:37;;;;;;;3.17;2.90;;;3.70;99.90;;;;;;4994257;28;20242;-50
2020/12/07 04:08:05;;;;;;;3.20;2.90;;;3.60;99.90;;;;;;4994752;28;20206;-53
2020/12/07 04:10:32;;;;;;;3.00;2.80;;;3.50;99.90;;;;;;4994757;28;20305;-52
2020/12/07 04:12:58;;;;;;;3.23;3.03;;;3.40;99.90;;;;;;4994499;28;20293;-48
2020/12/07 04:15:26;;;;;;;3.50;3.20;;;3.40;99.90;;;;;;4994348;28;20256;-48
2020/12/07 04:17:54;;;;;;;2.63;2.43;;;3.40;99.90;;;;;;4994324;28;20210;-46
2020/12/07 04:20:21;;;;;;;3.67;3.37;;;3.40;99.90;;;;;;4994085;28;20305;-51
2020/12/07 04:22:49;;;;;;;3.20;2.83;;;3.40;99.90;;;;;;4994466;28;20309;-48
2020/12/07 04:25:16;;;;;;;3.10;2.90;;;3.40;99.90;;;;;;4994225;28;20340;-49
2020/12/07 04:27:43;;;;;;;3.10;2.90;;;3.50;99.90;;;;;;4994022;28;20320;-46
2020/12/07 04:30:10;;;;;;;3.33;3.03;;;3.50;99.90;;;;;;4994458;28;20633;-50
2020/12/07 04:32:37;;;;;;;3.03;2.80;;;3.60;99.90;;;;;;4993927;28;20293;-48
2020/12/07 04:35:04;;;;;;;3.00;2.80;;;3.70;99.90;;;;;;4994512;28;20209;-49
2020/12/07 04:37:31;;;;;;;3.70;3.40;;;3.70;99.90;;;;;;4993877;28;20222;-48
2020/12/07 04:42:35;;;;;;;3.10;2.80;;;3.70;99.90;;;;;;5364862;22;20636;-48
2020/12/07 04:45:03;;;;;;;3.10;2.90;;;3.70;99.90;;;;;;4993050;28;20305;-48
2020/12/07 04:47:33;;;;;;;3.20;2.90;;;3.60;99.90;;;;;;4993638;28;20257;-50
2020/12/07 04:50:03;;;;;;;3.53;3.23;;;3.60;99.90;;;;;;4994164;28;20237;-51
2020/12/07 04:52:32;;;;;;;2.97;2.77;;;3.70;99.90;;;;;;4993844;28;20241;-53
2020/12/07 04:55:01;;;;;;;3.93;2.70;;;3.80;99.90;;;;;;4993829;28;20407;-51
2020/12/07 04:57:30;;;;;;;3.27;3.07;;;3.80;99.90;;;;;;4993781;28;20210;-48
2020/12/07 04:59:58;;;;;;;3.40;3.10;;;3.90;99.90;;;;;;4993600;28;20251;-51
2020/12/07 05:02:25;;;;;;;4.10;3.70;;;3.90;99.90;;;;;;4993330;28;20306;-51
2020/12/07 05:04:54;;;;;;;4.53;4.10;;;4.00;99.90;;;;;;4993571;28;20217;-53
2020/12/07 05:07:21;;;;;;;5.50;5.00;;;4.00;99.90;;;;;;4993309;28;20234;-48
2020/12/07 05:09:49;;;;;;;4.87;4.47;;;4.00;99.90;;;;;;4993428;28;20304;-50
2020/12/07 05:12:19;;;;;;;4.10;3.73;;;4.00;99.90;;;;;;4993194;28;20242;-51
2020/12/07 05:14:47;;;;;;;9.57;7.67;;;4.10;99.90;;;;;;4993425;28;20379;-49
2020/12/07 05:17:16;;;;;;;20.37;15.77;;;4.10;99.90;;;;;;4992488;28;20293;-49
2020/12/07 05:19:44;;;;;;;9.37;8.43;;;4.00;99.90;;;;;;4993399;28;20300;-50
2020/12/07 05:22:15;;;;;;;4.33;3.90;;;4.00;99.90;;;;;;4992975;28;20214;-53
2020/12/07 05:24:42;;;;;;;35.88;22.60;;;4.10;99.90;;;;;;4992964;28;20256;-51
2020/12/07 05:27:10;;;;;;;7.00;5.20;;;4.10;99.90;;;;;;4993053;28;20723;-50
2020/12/07 05:29:49;;;;;;;13.97;9.83;;;4.10;99.90;;;;;;4993142;28;20297;-51
2020/12/07 05:32:17;;;;;;;5.70;4.33;;;4.10;99.90;;;;;;4993078;28;20218;-51
2020/12/07 05:34:45;;;;;;;4.33;3.97;;;4.10;99.90;;;;;;4992892;28;20821;-46
2020/12/07 05:37:16;;;;;;;12.40;9.83;;;4.10;99.90;;;;;;4992736;28;20641;-51
2020/12/07 05:39:43;;;;;;;4.73;4.33;;;4.10;99.90;;;;;;4992897;28;20260;-49
2020/12/07 05:42:12;;;;;;;6.50;5.67;;;4.00;99.90;;;;;;4992704;28;20320;-48
2020/12/07 05:44:41;;;;;;;4.93;4.47;;;4.00;99.90;;;;;;4992824;28;20280;-48
2020/12/07 05:47:09;;;;;;;4.68;4.28;;;3.90;99.90;;;;;;4992868;28;20229;-47
2020/12/07 05:49:38;;;;;;;5.50;4.80;;;4.00;99.90;;;;;;4992580;28;20591;-48
2020/12/07 05:52:06;;;;;;;6.90;6.20;;;4.00;99.90;;;;;;4992642;28;20743;-48
2020/12/07 05:54:35;;;;;;;11.90;9.27;;;4.00;99.90;;;;;;4992904;28;20209;-47
2020/12/07 05:57:10;;;;;;;4.17;3.87;;;4.00;99.90;;;;;;4992497;28;20477;-50
2020/12/07 05:59:41;;;;;;;5.15;4.65;;;4.00;99.90;;;;;;4992424;28;20660;-51
2020/12/07 06:02:10;;;;;;;4.23;3.93;;;3.90;99.90;;;;;;4992580;28;20264;-47
2020/12/07 06:04:38;;;;;;;4.00;3.70;;;3.90;99.90;;;;;;4992508;28;20248;-48
2020/12/07 06:07:08;;;;;;;4.30;4.00;;;3.80;99.90;;;;;;4992654;28;20237;-51
2020/12/07 06:09:37;;;;;;;12.07;8.90;;;3.80;99.90;;;;;;4992792;28;20202;-52
2020/12/07 06:12:09;;;;;;;4.37;4.00;;;3.70;99.90;;;;;;4992567;28;20214;-48
2020/12/07 06:14:37;;;;;;;4.30;3.90;;;3.60;99.90;;;;;;4992660;28;20237;-52
2020/12/07 06:17:06;;;;;;;5.00;4.50;;;3.60;99.90;;;;;;4992494;28;20735;-49
2020/12/07 06:19:33;;;;;;;23.93;17.80;;;3.50;99.90;;;;;;4992466;28;20250;-51
2020/12/07 06:22:02;;;;;;;22.43;15.77;;;3.50;99.90;;;;;;4992458;28;20328;-50
2020/12/07 06:24:40;;;;;;;13.20;11.70;;;3.50;99.90;;;;;;4992336;28;20218;-48
2020/12/07 06:27:08;;;;;;;5.83;5.27;;;3.60;99.90;;;;;;4992337;28;20332;-50
2020/12/07 06:29:36;;;;;;;5.57;5.17;;;3.60;99.90;;;;;;4992031;28;20739;-54
2020/12/07 06:32:03;;;;;;;4.83;4.43;;;3.60;99.90;;;;;;4992052;28;20676;-49
2020/12/07 06:34:38;;;;;;;5.37;4.87;;;3.50;99.90;;;;;;4992120;28;20216;-53
2020/12/07 06:37:08;;;;;;;5.60;5.10;;;3.60;99.90;;;;;;4992103;28;20736;-49
2020/12/07 06:39:43;;;;;;;5.50;5.07;;;3.50;99.90;;;;;;4992198;28;20660;-50
2020/12/07 06:42:12;;;;;;;7.47;5.97;;;3.50;99.90;;;;;;4991917;28;20276;-48
2020/12/07 06:44:43;;;;;;;6.67;6.07;;;3.50;99.90;;;;;;4991916;28;20296;-48
2020/12/07 06:47:15;;;;;;;8.33;7.43;;;3.50;99.90;;;;;;4992026;28;20226;-49
2020/12/07 06:49:51;;;;;;;10.43;8.50;;;3.50;99.90;;;;;;4991839;28;20305;-49
2020/12/07 06:52:21;;;;;;;13.47;11.67;;;3.40;99.90;;;;;;4992020;28;20206;-52
2020/12/07 06:55:08;;;;;;;6.93;6.33;;;3.40;99.90;;;;;;4992131;28;20206;-50
2020/12/07 06:57:42;;;;;;;7.30;6.10;;;3.40;99.90;;;;;;4992163;28;20218;-49
2020/12/07 07:00:15;;;;;;;8.70;7.53;;;3.40;99.90;;;;;;4991919;28;20256;-49
2020/12/07 07:02:43;;;;;;;13.17;9.77;;;3.30;99.90;;;;;;4991825;28;20575;-51
2020/12/07 07:05:11;;;;;;;9.63;7.40;;;3.30;99.90;;;;;;4991901;28;20210;-50
2020/12/07 07:07:40;;;;;;;6.87;6.17;;;3.30;99.90;;;;;;4991958;28;20240;-50
2020/12/07 07:10:09;;;;;;;7.63;6.93;;;3.30;99.90;;;;;;4995782;28;20213;-48
2020/12/07 07:12:37;;;;;;;7.73;7.03;;;3.30;99.90;;;;;;4995392;28;20206;-51
2020/12/07 07:15:06;;;;;;;9.27;8.20;;;3.30;99.90;;;;;;4995300;28;20301;-48
2020/12/07 07:17:34;;;;;;;87.40;43.50;;;3.40;99.90;;;;;;4995532;28;20214;-48
2020/12/07 07:20:03;;;;;;;14.40;12.53;;;3.40;99.90;;;;;;4995566;28;20297;-47
2020/12/07 07:22:30;;;;;;;9.73;8.73;;;3.40;99.90;;;;;;4995527;28;20305;-46
2020/12/07 07:25:04;;;;;;;9.53;7.30;;;3.40;99.90;;;;;;4995476;28;20226;-48
2020/12/07 07:30:18;;;;;;;7.30;6.60;;;3.60;99.90;;;;;;4995275;28;20206;-52
2020/12/07 07:32:47;;;;;;;9.30;7.60;;;3.70;99.90;;;;;;4995069;28;20222;-49
2020/12/07 07:35:18;;;;;;;8.83;8.00;;;3.70;99.90;;;;;;4995226;28;20205;-52
2020/12/07 07:37:45;;;;;;;10.23;9.23;;;3.80;99.90;;;;;;4995145;28;20732;-49
2020/12/07 07:40:15;;;;;;;11.20;9.40;;;3.80;99.90;;;;;;4995011;28;20249;-48
2020/12/07 07:42:46;;;;;;;10.20;9.17;;;3.90;99.90;;;;;;4994851;28;20269;-48
2020/12/07 07:45:17;;;;;;;19.10;11.93;;;3.90;99.90;;;;;;4995230;28;20345;-47
2020/12/07 07:47:51;;;;;;;13.03;8.80;;;4.00;99.90;;;;;;4994838;28;20763;-48
2020/12/07 08:16:15;;;;;;;17.80;11.23;;;4.00;99.90;;;;;;4994326;28;20210;-46
2020/12/07 08:18:43;;;;;;;13.63;8.53;;;4.00;99.90;;;;;;4994170;28;20244;-49
2020/12/07 08:21:10;;;;;;;11.73;9.00;;;4.10;99.90;;;;;;4994177;28;20256;-50
2020/12/07 08:23:38;;;;;;;9.07;7.83;;;4.10;99.90;;;;;;4994216;28;20293;-49
2020/12/07 08:26:05;;;;;;;7.17;5.60;;;4.10;99.90;;;;;;4994346;28;20743;-47
2020/12/07 08:28:36;;;;;;;7.43;5.70;;;4.10;99.90;;;;;;4994227;28;20233;-50
2020/12/07 08:31:11;;;;;;;5.57;5.07;;;4.10;99.90;;;;;;4994178;28;20244;-48
2020/12/07 08:33:40;;;;;;;6.07;5.47;;;4.00;99.90;;;;;;4993985;28;20241;-50
2020/12/07 08:36:08;;;;;;;5.63;4.63;;;4.00;99.90;;;;;;4993868;28;20702;-51
2020/12/07 08:38:40;;;;;;;6.57;5.80;;;4.10;99.90;;;;;;4994412;28;20305;-47
2020/12/07 08:41:12;;;;;;;5.10;4.67;;;4.20;99.90;;;;;;4994027;28;20210;-46
2020/12/07 08:43:42;;;;;;;5.87;5.20;;;4.20;99.90;;;;;;4993551;28;20346;-46
2020/12/07 08:46:10;;;;;;;10.17;6.53;;;4.20;99.90;;;;;;4993708;28;20301;-48
2020/12/07 08:48:39;;;;;;;9.50;7.20;;;4.20;99.90;;;;;;4993561;28;20317;-46
2020/12/07 08:51:06;;;;;;;39.50;22.20;;;4.30;99.90;;;;;;4993284;28;20704;-48
2020/12/07 08:53:34;;;;;;;7.37;6.67;;;4.40;99.90;;;;;;4993737;28;20214;-51
2020/12/07 08:56:04;;;;;;;8.57;7.37;;;4.50;99.90;;;;;;4993661;28;20296;-49
2020/12/07 08:58:31;;;;;;;6.70;6.00;;;4.60;99.90;;;;;;4993436;28;20255;-49
2020/12/07 09:01:01;;;;;;;6.20;5.57;;;4.70;99.90;;;;;;4993449;28;20523;-47
2020/12/07 09:03:28;;;;;;;7.43;6.73;;;4.70;99.90;;;;;;4993434;28;20388;-51
2020/12/07 09:05:55;;;;;;;6.17;5.67;;;4.70;99.90;;;;;;4993835;28;20248;-50
2020/12/07 09:08:22;;;;;;;5.13;4.73;;;4.70;99.90;;;;;;4993377;28;20700;-47
2020/12/07 09:10:50;;;;;;;5.37;4.87;;;4.70;99.90;;;;;;4993486;28;20284;-49
2020/12/07 09:13:20;;;;;;;21.20;14.27;;;4.60;99.90;;;;;;4993379;28;20214;-47
2020/12/07 09:15:48;;;;;;;26.23;17.13;;;4.60;99.90;;;;;;4993148;28;20218;-46
2020/12/07 09:18:16;;;;;;;6.77;6.17;;;4.60;99.90;;;;;;4993150;28;20237;-45
2020/12/07 09:20:43;;;;;;;6.30;5.70;;;4.50;99.90;;;;;;4993464;28;20318;-49
2020/12/07 09:23:10;;;;;;;5.55;5.05;;;4.50;99.90;;;;;;4993280;28;20295;-49
2020/12/07 09:25:37;;;;;;;5.97;5.47;;;4.50;99.90;;;;;;4993209;28;20250;-51
2020/12/07 09:28:04;;;;;;;6.57;5.97;;;4.50;99.90;;;;;;4993217;28;20257;-45
2020/12/07 09:30:31;;;;;;;40.37;27.63;;;4.60;99.90;;;;;;4992577;28;20254;-47
2020/12/07 09:32:58;;;;;;;28.73;21.07;;;4.70;99.90;;;;;;4993212;28;20233;-45
2020/12/07 09:35:26;;;;;;;13.63;11.13;;;4.80;99.90;;;;;;4992968;28;20297;-45
2020/12/07 09:37:54;;;;;;;14.53;11.37;;;4.90;99.90;;;;;;4992680;28;20536;-47
2020/12/07 09:40:20;;;;;;;10.23;8.80;;;5.00;99.90;;;;;;4992941;28;20621;-48
2020/12/07 09:42:47;;;;;;;6.87;6.27;;;5.10;99.90;;;;;;4992647;28;20594;-46
2020/12/07 09:45:14;;;;;;;13.10;11.50;;;5.20;99.90;;;;;;4992553;28;20304;-47
2020/12/07 09:47:41;;;;;;;9.53;8.70;;;5.20;99.90;;;;;;4992960;28;20273;-47
2020/12/07 09:50:09;;;;;;;5.77;5.27;;;5.20;99.90;;;;;;4992804;28;20296;-48
2020/12/07 09:52:38;;;;;;;5.43;4.93;;;5.10;99.90;;;;;;4992926;28;20245;-49
2020/12/07 09:55:05;;;;;;;9.40;8.33;;;5.00;99.90;;;;;;4992802;28;20210;-45
2020/12/07 09:57:33;;;;;;;12.67;11.37;;;5.00;99.90;;;;;;4992757;28;20682;-46
2020/12/07 10:00:00;;;;;;;15.47;13.23;;;5.00;99.90;;;;;;4992689;28;20214;-45
2020/12/07 10:02:27;;;;;;;96.67;71.70;;;5.10;99.90;;;;;;4992986;28;20206;-45
2020/12/07 10:04:54;;;;;;;7.47;6.87;;;5.20;99.90;;;;;;4992851;28;20293;-47
2020/12/07 10:07:21;;;;;;;10.60;9.57;;;5.20;99.90;;;;;;4992686;28;20265;-45
2020/12/07 10:09:48;;;;;;;86.80;65.10;;;5.20;99.90;;;;;;4992638;28;20305;-47
2020/12/07 10:12:15;;;;;;;11.47;10.37;;;5.20;99.90;;;;;;4992547;28;20302;-47
2020/12/07 10:14:42;;;;;;;6.30;5.70;;;5.20;99.90;;;;;;4992989;28;20217;-45
2020/12/07 10:17:10;;;;;;;6.43;5.83;;;5.30;99.90;;;;;;4992623;28;20320;-47
2020/12/07 10:19:37;;;;;;;7.00;6.40;;;5.40;99.90;;;;;;4992707;28;20237;-48
2020/12/07 10:22:04;;;;;;;6.23;5.70;;;5.50;99.90;;;;;;4992533;28;20305;-48
2020/12/07 10:24:32;;;;;;;6.37;5.73;;;5.50;99.90;;;;;;4992399;28;20297;-47
2020/12/07 10:27:00;;;;;;;7.13;6.37;;;5.40;99.90;;;;;;4992197;28;20314;-47
2020/12/07 10:29:28;;;;;;;7.17;5.90;;;5.40;99.90;;;;;;4992540;28;20300;-46
2020/12/07 10:31:56;;;;;;;10.57;9.57;;;5.40;99.90;;;;;;4992578;28;20244;-49
2020/12/07 10:34:23;;;;;;;5.33;4.90;;;5.40;99.90;;;;;;4992407;28;20245;-47
2020/12/07 10:36:51;;;;;;;6.43;5.87;;;5.40;99.90;;;;;;4992021;28;20218;-47
2020/12/07 10:39:18;;;;;;;4.87;4.47;;;5.50;99.90;;;;;;4992189;28;20210;-49
2020/12/07 10:41:45;;;;;;;4.80;4.33;;;5.50;99.90;;;;;;4992305;28;20350;-46
2020/12/07 10:44:13;;;;;;;7.47;6.87;;;5.60;99.90;;;;;;4994746;28;20300;-46
2020/12/07 10:46:40;;;;;;;6.00;5.00;;;5.60;99.90;;;;;;4996216;28;20293;-48
2020/12/07 10:49:07;;;;;;;5.23;4.73;;;5.50;99.90;;;;;;4996174;28;20324;-47
2020/12/07 10:51:34;;;;;;;9.33;8.43;;;5.60;99.90;;;;;;4995709;28;20214;-49
2020/12/07 10:54:03;;;;;;;5.47;5.07;;;5.70;99.90;;;;;;4995837;28;20288;-48
2020/12/07 10:56:30;;;;;;;13.70;6.03;;;5.80;99.90;;;;;;4995754;28;20214;-48
2020/12/07 10:58:57;;;;;;;5.80;5.30;;;5.80;99.90;;;;;;4995763;28;20210;-47
2020/12/07 11:01:25;;;;;;;6.47;5.70;;;6.00;99.90;;;;;;4995433;28;20214;-51
2020/12/07 11:03:53;;;;;;;6.53;5.93;;;6.00;99.90;;;;;;4995590;28;20264;-49
2020/12/07 11:06:23;;;;;;;6.82;6.03;;;6.10;99.90;;;;;;4995657;28;20297;-46
2020/12/07 11:08:52;;;;;;;7.05;6.45;;;6.10;99.90;;;;;;4995408;28;20704;-51
2020/12/07 11:11:20;;;;;;;18.63;13.32;;;6.10;99.90;;;;;;4995533;28;20211;-47
2020/12/07 11:13:47;;;;;;;15.93;14.55;;;6.20;99.90;;;;;;4995668;28;20672;-43
2020/12/07 11:16:16;;;;;;;24.83;22.27;;;6.30;99.90;;;;;;4995507;28;20210;-45
2020/12/07 11:18:44;;;;;;;36.97;33.17;;;6.30;99.90;;;;;;4995703;28;20206;-46
2020/12/07 11:21:15;;;;;;;11.97;10.23;;;6.30;99.90;;;;;;4995213;28;20218;-48
2020/12/07 11:23:44;;;;;;;12.48;11.32;;;6.40;99.90;;;;;;4995569;28;20668;-45
2020/12/07 11:26:12;;;;;;;6.57;5.97;;;6.40;99.90;;;;;;4995410;28;20311;-49
2020/12/07 11:28:39;;;;;;;7.67;6.97;;;6.40;99.90;;;;;;4995139;28;20321;-47
2020/12/07 11:31:09;;;;;;;6.65;5.90;;;6.30;99.90;;;;;;4995416;28;20292;-43
2020/12/07 11:33:36;;;;;;;6.03;5.53;;;6.30;99.90;;;;;;4994929;28;20210;-47
2020/12/07 11:36:14;;;;;;;6.13;5.53;;;6.30;99.90;;;;;;4995237;28;20209;-45
2020/12/07 11:38:45;;;;;;;7.37;6.03;;;6.30;99.90;;;;;;4995300;28;20625;-49
2020/12/07 11:44:06;;;;;;;5.80;5.23;;;6.30;99.90;;;;;;4992768;28;20210;-51
2020/12/07 11:46:36;;;;;;;5.93;5.13;;;6.30;99.90;;;;;;4995215;28;20233;-45
2020/12/07 11:49:04;;;;;;;5.63;5.13;;;6.30;99.90;;;;;;4995013;28;20230;-49
2020/12/07 11:51:32;;;;;;;5.03;4.60;;;6.50;99.90;;;;;;4994768;28;20253;-46
2020/12/07 11:53:59;;;;;;;5.30;4.90;;;6.60;99.90;;;;;;4994401;28;20214;-44
2020/12/07 11:56:27;;;;;;;5.32;4.85;;;6.80;99.90;;;;;;4994921;28;20250;-48
2020/12/07 11:58:54;;;;;;;6.27;5.77;;;6.90;99.90;;;;;;4994822;28;20696;-50
2020/12/07 12:01:21;;;;;;;5.67;5.27;;;7.10;99.90;;;;;;4994868;28;20297;-48
2020/12/07 12:03:49;;;;;;;5.57;5.07;;;7.30;99.90;;;;;;4994882;28;20210;-51
2020/12/07 12:06:23;;;;;;;5.40;4.90;;;7.40;99.90;;;;;;4994649;28;20210;-49
2020/12/07 12:08:51;;;;;;;5.13;4.70;;;7.40;99.90;;;;;;4994368;28;20226;-48
2020/12/07 12:11:18;;;;;;;6.15;5.55;;;7.30;99.90;;;;;;4994527;28;20222;-46
2020/12/07 12:13:46;;;;;;;5.30;4.90;;;7.30;99.90;;;;;;4994605;28;20301;-46
2020/12/07 12:16:13;;;;;;;5.83;5.33;;;7.10;99.90;;;;;;4994704;28;20261;-50
2020/12/07 12:18:58;;;;;;;5.68;5.18;;;7.00;99.90;;;;;;4994562;28;20210;-47
2020/12/07 12:21:28;;;;;;;5.55;5.05;;;6.90;99.90;;;;;;4994295;28;20256;-48
2020/12/07 12:23:56;;;;;;;6.00;5.35;;;6.80;99.90;;;;;;4994253;28;20669;-46
2020/12/07 12:26:23;;;;;;;6.05;5.53;;;6.70;99.90;;;;;;4994534;28;20304;-46
2020/12/07 12:28:51;;;;;;;6.30;5.73;;;6.50;99.90;;;;;;4994366;28;20230;-47
2020/12/07 12:31:18;;;;;;;6.50;5.83;;;6.40;99.90;;;;;;4994271;28;20288;-48
2020/12/07 12:33:46;;;;;;;5.93;5.43;;;6.20;99.90;;;;;;4994167;28;20236;-49
2020/12/07 12:36:16;;;;;;;5.97;5.47;;;6.10;99.90;;;;;;4994147;28;20245;-46
2020/12/07 12:38:43;;;;;;;7.30;6.07;;;6.10;99.90;;;;;;4994320;28;20210;-48
2020/12/07 12:41:11;;;;;;;11.60;9.70;;;6.10;99.90;;;;;;4993890;28;20731;-49
2020/12/07 12:43:39;;;;;;;11.27;10.13;;;6.10;99.90;;;;;;4993838;28;20289;-49
2020/12/07 12:46:06;;;;;;;54.85;37.28;;;5.90;99.90;;;;;;4994039;28;20217;-48
2020/12/07 12:48:33;;;;;;;10.30;7.77;;;5.90;99.90;;;;;;4993763;28;20333;-47
2020/12/07 12:51:01;;;;;;;5.30;4.90;;;5.90;99.90;;;;;;4993720;28;20214;-48
2020/12/07 12:53:28;;;;;;;7.93;7.13;;;5.80;99.90;;;;;;4993854;28;20328;-46
2020/12/07 12:55:56;;;;;;;6.93;5.73;;;5.80;99.90;;;;;;4994078;28;20677;-49
2020/12/07 12:58:25;;;;;;;4.07;3.78;;;5.80;99.90;;;;;;4993803;28;20210;-47
2020/12/07 13:00:53;;;;;;;5.10;4.70;;;5.70;99.90;;;;;;4993470;28;20206;-49
2020/12/07 13:03:20;;;;;;;4.75;4.35;;;5.70;99.90;;;;;;4993801;28;20210;-47
2020/12/07 13:05:47;;;;;;;5.53;5.03;;;5.70;99.90;;;;;;4993019;28;20234;-49
2020/12/07 13:08:14;;;;;;;5.67;5.17;;;5.70;99.90;;;;;;4993512;28;20313;-45
2020/12/07 13:10:41;;;;;;;9.65;8.85;;;5.70;99.90;;;;;;4993599;28;20301;-48
2020/12/07 13:13:08;;;;;;;44.43;40.03;;;5.70;99.90;;;;;;4993627;28;20300;-46
2020/12/07 13:15:41;;;;;;;7.23;6.63;;;5.80;99.90;;;;;;4993886;28;20252;-47
2020/12/07 13:18:09;;;;;;;6.57;6.07;;;5.80;99.90;;;;;;4993346;28;20217;-46
2020/12/07 13:20:40;;;;;;;5.30;4.90;;;5.80;99.90;;;;;;4993269;28;20211;-48
2020/12/07 13:23:14;;;;;;;5.57;5.07;;;5.80;99.90;;;;;;4993368;28;20301;-49
2020/12/07 13:25:47;;;;;;;6.10;5.50;;;5.80;99.90;;;;;;4993186;28;20260;-51
2020/12/07 13:28:15;;;;;;;6.87;6.20;;;5.80;99.90;;;;;;4992984;28;20656;-48
2020/12/07 13:30:43;;;;;;;6.63;6.13;;;5.80;99.90;;;;;;4993309;28;20210;-47
2020/12/07 13:33:11;;;;;;;5.10;4.70;;;5.80;99.90;;;;;;4993053;28;20703;-50
2020/12/07 13:35:39;;;;;;;5.73;5.20;;;5.80;99.90;;;;;;4992991;28;20214;-49
2020/12/07 13:38:07;;;;;;;7.50;6.83;;;5.80;99.90;;;;;;4993055;28;20206;-49